createdAt,value
2023-03-21T00:01:52.693Z,5.96
2023-03-21T00:04:21.557Z,5.96
2023-03-21T00:06:51.876Z,5.96
2023-03-21T00:09:20.538Z,5.85
2023-03-21T00:11:49.553Z,5.89
2023-03-21T00:14:19.076Z,5.84
2023-03-21T00:16:51.083Z,5.75
2023-03-21T00:19:25.028Z,5.70
2023-03-21T00:22:06.985Z,5.64
2023-03-21T00:24:37.245Z,5.58
2023-03-21T00:27:30.284Z,5.28
2023-03-21T00:29:57.087Z,5.52
2023-03-21T00:32:27.921Z,5.49
2023-03-21T00:35:13.962Z,5.42
2023-03-21T00:37:47.997Z,5.34
2023-03-21T00:40:26.733Z,5.31
2023-03-21T00:42:59.723Z,5.29
2023-03-21T00:45:28.243Z,5.29
2023-03-21T00:47:56.841Z,5.28
2023-03-21T00:50:25.706Z,5.33
2023-03-21T00:52:55.520Z,5.38
2023-03-21T00:55:26.888Z,5.42
2023-03-21T00:58:01.503Z,5.42
2023-03-21T01:00:30.523Z,5.34
2023-03-21T01:03:17.518Z,5.26
2023-03-21T01:06:08.431Z,5.19
2023-03-21T01:08:55.010Z,5.17
2023-03-21T01:11:25.581Z,4.86
2023-03-21T01:14:04.010Z,5.14
2023-03-21T01:16:36.311Z,5.06
2023-03-21T01:19:09.452Z,5.02
2023-03-21T01:21:43.522Z,4.83
2023-03-21T01:24:14.338Z,4.95
2023-03-21T01:26:42.769Z,4.87
2023-03-21T01:29:11.559Z,4.84
2023-03-21T01:31:40.249Z,4.81
2023-03-21T01:34:09.289Z,4.77
2023-03-21T01:36:37.969Z,4.74
2023-03-21T01:39:10.687Z,4.70
2023-03-21T01:41:44.331Z,4.69
2023-03-21T01:44:21.996Z,4.47
2023-03-21T01:47:10.944Z,4.71
2023-03-21T01:49:48.690Z,4.67
2023-03-21T01:52:40.559Z,4.76
2023-03-21T01:55:15.610Z,4.69
2023-03-21T01:58:06.427Z,4.75
2023-03-21T02:01:05.871Z,4.70
2023-03-21T02:03:50.286Z,4.65
2023-03-21T02:06:35.496Z,4.65
2023-03-21T02:09:17.856Z,4.63
2023-03-21T02:11:47.973Z,4.54
2023-03-21T02:14:29.011Z,4.48
2023-03-21T02:17:12.286Z,4.38
2023-03-21T02:20:13.525Z,4.31
2023-03-21T02:23:29.562Z,4.26
2023-03-21T02:26:42.391Z,4.20
2023-03-21T02:29:32.880Z,4.17
2023-03-21T02:32:22.431Z,4.17
2023-03-21T02:35:17.400Z,4.12
2023-03-21T02:37:58.572Z,4.10
2023-03-21T02:40:35.062Z,4.04
2023-03-21T02:43:22.229Z,4.04
2023-03-21T02:45:56.351Z,4.01
2023-03-21T02:48:38.113Z,4.03
2023-03-21T02:51:17.574Z,3.79
2023-03-21T02:54:21.892Z,4.06
2023-03-21T02:56:45.951Z,3.56
2023-03-21T02:59:16.399Z,4.01
2023-03-21T03:01:45.275Z,3.96
2023-03-21T03:04:23.272Z,3.93
2023-03-21T03:07:14.471Z,3.86
2023-03-21T03:10:01.157Z,3.83
2023-03-21T03:12:37.581Z,3.80
2023-03-21T03:15:19.316Z,3.77
2023-03-21T03:17:55.788Z,3.56
2023-03-21T03:20:31.822Z,3.72
2023-03-21T03:23:08.898Z,3.71
2023-03-21T03:25:43.886Z,3.70
2023-03-21T03:28:19.774Z,3.65
2023-03-21T03:31:07.044Z,3.61
2023-03-21T03:33:45.613Z,3.57
2023-03-21T03:36:33.599Z,3.60
2023-03-21T03:39:10.801Z,3.55
2023-03-21T03:42:08.085Z,3.55
2023-03-21T03:44:41.305Z,3.48
2023-03-21T03:47:22.893Z,3.48
2023-03-21T03:50:02.374Z,3.53
2023-03-21T03:52:40.081Z,3.38
2023-03-21T03:55:17.842Z,3.52
2023-03-21T03:57:51.088Z,3.44
2023-03-21T04:00:21.033Z,3.49
2023-03-21T04:02:51.826Z,3.47
2023-03-21T04:05:25.158Z,3.43
2023-03-21T04:07:55.139Z,3.40
2023-03-21T04:10:32.227Z,3.35
2023-03-21T04:13:03.412Z,3.35
2023-03-21T04:15:45.981Z,3.31
2023-03-21T04:18:17.455Z,3.29
2023-03-21T04:20:46.302Z,3.29
2023-03-21T04:23:14.877Z,3.29
2023-03-21T04:25:55.937Z,3.29
2023-03-21T04:28:33.714Z,3.32
2023-03-21T04:31:28.715Z,3.29
2023-03-21T04:34:10.177Z,3.30
2023-03-21T04:36:44.698Z,3.31
2023-03-21T04:39:13.615Z,3.27
2023-03-21T04:41:44.752Z,3.23
2023-03-21T04:44:16.675Z,3.17
2023-03-21T04:46:45.749Z,3.20
2023-03-21T04:49:15.655Z,3.20
2023-03-21T04:51:46.458Z,3.24
2023-03-21T04:54:21.166Z,3.25
2023-03-21T04:56:49.633Z,3.25
2023-03-21T04:59:21.512Z,2.90
2023-03-21T05:01:51.173Z,3.22
2023-03-21T05:04:20.746Z,3.21
2023-03-21T05:06:49.232Z,3.16
2023-03-21T05:09:18.208Z,3.11
2023-03-21T05:11:46.652Z,3.04
2023-03-21T05:14:20.343Z,3.03
2023-03-21T05:16:53.565Z,2.96
2023-03-21T05:19:24.571Z,2.94
2023-03-21T05:21:53.471Z,2.94
2023-03-21T05:24:24.732Z,2.93
2023-03-21T05:26:56.382Z,2.94
2023-03-21T05:29:33.912Z,1.88
2023-03-21T05:32:05.315Z,2.97
2023-03-21T05:34:33.704Z,2.94
2023-03-21T05:37:03.060Z,3.05
2023-03-21T05:39:45.033Z,3.07
2023-03-21T05:42:20.777Z,2.89
2023-03-21T05:44:52.008Z,3.00
2023-03-21T05:47:25.487Z,2.96
2023-03-21T05:49:55.391Z,2.92
2023-03-21T05:52:24.829Z,2.90
2023-03-21T05:54:53.588Z,2.86
2023-03-21T05:57:26.413Z,2.88
2023-03-21T06:00:07.301Z,2.95
2023-03-21T06:02:44.755Z,2.95
2023-03-21T06:05:31.737Z,2.94
2023-03-21T06:08:00.258Z,3.02
2023-03-21T06:10:28.989Z,3.03
2023-03-21T06:12:58.456Z,3.16
2023-03-21T06:15:32.042Z,3.17
2023-03-21T06:18:13.181Z,3.24
2023-03-21T06:20:50.921Z,3.35
2023-03-21T06:23:19.361Z,3.43
2023-03-21T06:25:49.472Z,3.55
2023-03-21T06:28:19.010Z,3.57
2023-03-21T06:30:48.842Z,3.61
2023-03-21T06:33:21.956Z,2.86
2023-03-21T06:35:53.627Z,3.78
2023-03-21T06:38:23.171Z,3.92
2023-03-21T06:40:51.984Z,4.09
2023-03-21T06:43:20.600Z,4.31
2023-03-21T06:45:50.502Z,4.53
2023-03-21T06:48:19.103Z,4.63
2023-03-21T06:50:51.961Z,4.83
2023-03-21T06:53:24.598Z,4.94
2023-03-21T06:56:17.485Z,5.10
2023-03-21T06:58:47.244Z,5.30
2023-03-21T07:01:37.081Z,5.46
2023-03-21T07:04:08.595Z,5.59
2023-03-21T07:06:37.381Z,5.77
2023-03-21T07:09:06.833Z,5.97
2023-03-21T07:11:37.799Z,5.99
2023-03-21T07:14:07.798Z,6.28
2023-03-21T07:16:39.774Z,6.40
2023-03-21T07:19:08.172Z,6.50
2023-03-21T07:21:36.533Z,6.64
2023-03-21T07:24:05.690Z,6.74
2023-03-21T07:26:34.475Z,6.89
2023-03-21T07:29:04.995Z,7.03
2023-03-21T07:31:33.520Z,7.15
2023-03-21T07:34:06.116Z,7.35
2023-03-21T07:36:34.749Z,7.60
2023-03-21T07:39:03.142Z,7.83
2023-03-21T07:41:31.623Z,8.07
2023-03-21T07:44:11.928Z,8.27
2023-03-21T07:46:40.356Z,8.45
2023-03-21T07:49:10.158Z,8.67
2023-03-21T07:51:39.162Z,8.81
2023-03-21T07:54:07.840Z,9.00
2023-03-21T07:56:36.519Z,9.15
2023-03-21T07:59:05.600Z,9.28
2023-03-21T08:01:34.139Z,9.42
2023-03-21T08:04:02.516Z,9.55
2023-03-21T08:06:32.669Z,9.69
2023-03-21T08:09:01.609Z,9.76
2023-03-21T08:11:31.590Z,9.97
2023-03-21T08:14:00.170Z,10.09
2023-03-21T08:16:29.351Z,10.23
2023-03-21T08:18:57.773Z,10.40
2023-03-21T08:21:28.179Z,10.53
2023-03-21T08:23:58.256Z,10.75
2023-03-21T08:26:26.775Z,10.91
2023-03-21T08:28:55.190Z,11.00
2023-03-21T08:31:23.837Z,11.12
2023-03-21T08:33:54.830Z,11.28
2023-03-21T08:36:23.894Z,11.39
2023-03-21T08:38:57.026Z,11.51
2023-03-21T08:41:27.148Z,11.62
2023-03-21T08:43:55.676Z,11.69
2023-03-21T08:46:24.084Z,11.70
2023-03-21T08:48:52.541Z,11.78
2023-03-21T08:51:21.000Z,11.83
2023-03-21T08:53:51.186Z,11.92
2023-03-21T08:56:19.878Z,11.99
2023-03-21T08:58:49.858Z,12.07
2023-03-21T09:01:18.632Z,12.16
2023-03-21T09:03:47.058Z,12.33
2023-03-21T09:06:15.963Z,12.52
2023-03-21T09:08:46.409Z,12.62
2023-03-21T09:11:15.237Z,12.69
2023-03-21T09:13:43.709Z,12.74
2023-03-21T09:16:13.575Z,12.83
2023-03-21T09:18:49.645Z,12.94
2023-03-21T09:21:20.382Z,13.05
2023-03-21T09:23:52.957Z,13.14
2023-03-21T09:26:24.228Z,13.23
2023-03-21T09:28:53.324Z,13.31
2023-03-21T09:31:25.107Z,13.40
2023-03-21T09:33:56.200Z,13.51
2023-03-21T09:36:25.213Z,13.38
2023-03-21T09:38:53.963Z,13.60
2023-03-21T09:41:34.015Z,13.66
2023-03-21T09:44:15.589Z,13.69
2023-03-21T09:46:52.417Z,13.74
2023-03-21T09:49:25.781Z,13.80
2023-03-21T09:51:57.428Z,13.85
2023-03-21T09:54:29.115Z,14.01
2023-03-21T09:57:03.911Z,13.90
2023-03-21T09:59:38.355Z,14.17
2023-03-21T10:02:23.969Z,14.27
2023-03-21T10:04:53.124Z,14.24
2023-03-21T10:07:21.641Z,14.26
2023-03-21T10:09:52.692Z,14.33
2023-03-21T10:12:24.892Z,14.42
2023-03-21T10:14:57.964Z,14.50
2023-03-21T10:17:34.269Z,14.59
2023-03-21T10:20:13.539Z,14.61
2023-03-21T10:22:42.380Z,14.65
2023-03-21T10:25:18.010Z,14.72
2023-03-21T10:27:47.437Z,14.79
2023-03-21T10:30:29.567Z,14.82
2023-03-21T10:33:05.238Z,14.89
2023-03-21T10:35:37.522Z,14.98
2023-03-21T10:38:08.247Z,15.01
2023-03-21T10:40:36.660Z,15.02
2023-03-21T10:43:19.542Z,15.14
2023-03-21T10:45:48.940Z,15.20
2023-03-21T10:48:18.936Z,15.28
2023-03-21T10:50:50.712Z,15.41
2023-03-21T10:53:23.196Z,15.41
2023-03-21T10:55:55.537Z,15.45
2023-03-21T10:58:28.195Z,15.55
2023-03-21T11:00:59.372Z,15.61
2023-03-21T11:03:33.697Z,15.44
2023-03-21T11:06:05.316Z,15.74
2023-03-21T11:08:40.208Z,15.68
2023-03-21T11:11:12.531Z,15.97
2023-03-21T11:13:43.028Z,15.80
2023-03-21T11:16:13.444Z,16.20
2023-03-21T11:18:47.631Z,16.25
2023-03-21T11:21:17.208Z,15.97
2023-03-21T11:23:48.242Z,16.29
2023-03-21T11:26:24.421Z,16.31
2023-03-21T11:28:53.424Z,16.35
2023-03-21T11:31:25.000Z,16.39
2023-03-21T11:34:00.043Z,16.46
2023-03-21T11:36:35.274Z,16.49
2023-03-21T11:39:16.609Z,16.57
2023-03-21T11:41:49.489Z,16.68
2023-03-21T11:44:29.969Z,16.80
2023-03-21T11:46:58.836Z,16.83
2023-03-21T11:49:29.600Z,16.74
2023-03-21T11:52:13.641Z,16.91
2023-03-21T11:54:52.902Z,16.78
2023-03-21T11:57:31.592Z,16.98
2023-03-21T12:00:10.858Z,16.86
2023-03-21T12:03:02.914Z,17.06
2023-03-21T12:05:37.793Z,17.15
2023-03-21T12:08:21.713Z,17.23
2023-03-21T12:10:56.391Z,17.31
2023-03-21T12:13:39.209Z,17.38
2023-03-21T12:16:21.291Z,17.27
2023-03-21T12:19:23.915Z,17.38
2023-03-21T12:22:05.763Z,17.40
2023-03-21T12:24:38.881Z,17.45
2023-03-21T12:27:15.740Z,17.36
2023-03-21T12:30:00.107Z,17.43
2023-03-21T12:32:46.264Z,17.49
2023-03-21T12:35:33.611Z,17.53
2023-03-21T12:38:16.682Z,17.55
2023-03-21T12:40:54.870Z,17.59
2023-03-21T12:43:37.869Z,17.65
2023-03-21T12:46:13.194Z,17.62
2023-03-21T12:48:47.587Z,17.72
2023-03-21T12:51:19.926Z,17.73
2023-03-21T12:54:06.468Z,17.90
2023-03-21T12:56:39.560Z,18.01
2023-03-21T12:59:19.482Z,17.88
2023-03-21T13:01:51.890Z,18.15
2023-03-21T13:04:36.899Z,18.31
2023-03-21T13:07:09.278Z,18.37
2023-03-21T13:09:41.065Z,18.44
2023-03-21T13:12:25.827Z,18.37
2023-03-21T13:15:12.462Z,18.57
2023-03-21T13:17:49.990Z,18.60
2023-03-21T13:20:26.463Z,18.65
2023-03-21T13:22:54.909Z,18.62
2023-03-21T13:25:28.304Z,18.62
2023-03-21T13:28:03.289Z,18.62
2023-03-21T13:30:33.618Z,18.57
2023-03-21T13:33:07.220Z,18.61
2023-03-21T13:35:38.674Z,18.57
2023-03-21T13:38:16.583Z,18.47
2023-03-21T13:40:50.051Z,18.38
2023-03-21T13:43:53.814Z,18.28
2023-03-21T13:46:53.982Z,18.05
2023-03-21T13:49:32.496Z,18.19
2023-03-21T13:52:02.406Z,18.20
2023-03-21T13:54:49.791Z,18.16
2023-03-21T13:57:39.648Z,18.09
2023-03-21T14:00:25.804Z,18.14
2023-03-21T14:03:00.115Z,18.14
2023-03-21T14:05:30.487Z,18.08
2023-03-21T14:08:13.636Z,18.07
2023-03-21T14:10:46.444Z,18.06
2023-03-21T14:13:20.989Z,18.01
2023-03-21T14:15:55.955Z,17.99
2023-03-21T14:18:41.020Z,17.90
2023-03-21T14:21:23.763Z,17.93
2023-03-21T14:24:01.528Z,17.89
2023-03-21T14:26:33.416Z,17.60
2023-03-21T14:29:12.328Z,17.96
2023-03-21T14:31:47.281Z,18.07
2023-03-21T14:34:16.998Z,18.15
2023-03-21T14:36:56.838Z,18.14
2023-03-21T14:39:29.755Z,18.14
2023-03-21T14:42:03.575Z,18.12
2023-03-21T14:44:53.523Z,18.09
2023-03-21T14:47:25.333Z,18.05
2023-03-21T14:49:54.430Z,17.99
2023-03-21T14:52:26.238Z,17.37
2023-03-21T14:54:56.477Z,17.82
2023-03-21T14:57:28.896Z,17.78
2023-03-21T15:00:04.212Z,17.78
2023-03-21T15:02:36.757Z,17.76
2023-03-21T15:05:11.368Z,17.69
2023-03-21T15:07:39.906Z,17.62
2023-03-21T15:10:18.054Z,17.26
2023-03-21T15:12:54.599Z,17.56
2023-03-21T15:15:27.583Z,17.53
2023-03-21T15:18:00.828Z,17.50
2023-03-21T15:20:35.138Z,17.46
2023-03-21T15:23:07.176Z,17.42
2023-03-21T15:25:38.238Z,17.27
2023-03-21T15:28:07.495Z,17.28
2023-03-21T15:30:37.438Z,17.18
2023-03-21T15:33:11.837Z,17.17
2023-03-21T15:35:43.045Z,17.05
2023-03-21T15:38:23.924Z,16.97
2023-03-21T15:40:52.414Z,16.88
2023-03-21T15:43:21.348Z,16.86
2023-03-21T15:45:54.442Z,16.84
2023-03-21T15:48:26.306Z,16.84
2023-03-21T15:50:59.876Z,16.89
2023-03-21T15:53:28.320Z,16.88
2023-03-21T15:56:02.048Z,16.87
2023-03-21T15:58:37.350Z,16.88
2023-03-21T16:01:12.600Z,16.82
2023-03-21T16:03:46.104Z,16.81
2023-03-21T16:06:25.809Z,16.78
2023-03-21T16:09:04.425Z,16.10
2023-03-21T16:11:40.465Z,16.75
2023-03-21T16:14:09.347Z,16.75
2023-03-21T16:16:39.408Z,16.71
2023-03-21T16:19:08.661Z,16.66
2023-03-21T16:21:38.518Z,16.61
2023-03-21T16:24:09.146Z,16.58
2023-03-21T16:26:42.799Z,16.56
2023-03-21T16:29:13.889Z,16.18
2023-03-21T16:31:44.263Z,16.47
2023-03-21T16:34:13.812Z,16.43
2023-03-21T16:36:43.573Z,16.44
2023-03-21T16:39:18.151Z,16.43
2023-03-21T16:41:46.836Z,16.37
2023-03-21T16:44:15.578Z,16.33
2023-03-21T16:46:47.343Z,16.30
2023-03-21T16:49:21.649Z,16.10
2023-03-21T16:51:50.041Z,16.17
2023-03-21T16:54:18.733Z,16.15
2023-03-21T16:56:50.648Z,16.14
2023-03-21T16:59:19.426Z,16.12
2023-03-21T17:01:49.968Z,16.13
2023-03-21T17:04:19.647Z,16.07
2023-03-21T17:06:50.179Z,16.03
2023-03-21T17:09:20.314Z,15.99
2023-03-21T17:11:49.679Z,15.94
2023-03-21T17:14:18.850Z,15.90
2023-03-21T17:16:49.130Z,15.89
2023-03-21T17:19:19.482Z,15.85
2023-03-21T17:21:48.258Z,15.47
2023-03-21T17:24:16.972Z,15.75
2023-03-21T17:26:45.836Z,15.69
2023-03-21T17:29:15.516Z,15.66
2023-03-21T17:31:47.441Z,15.58
2023-03-21T17:34:17.874Z,15.54
2023-03-21T17:36:48.894Z,15.48
2023-03-21T17:39:21.639Z,15.29
2023-03-21T17:41:50.195Z,15.32
2023-03-21T17:44:18.739Z,15.28
2023-03-21T17:46:49.588Z,15.19
2023-03-21T17:49:21.329Z,15.08
2023-03-21T17:51:50.638Z,15.04
2023-03-21T17:54:19.128Z,15.00
2023-03-21T17:56:47.600Z,14.98
2023-03-21T17:59:16.697Z,14.94
2023-03-21T18:01:45.194Z,14.85
2023-03-21T18:04:13.723Z,14.81
2023-03-21T18:06:43.625Z,14.70
2023-03-21T18:09:12.446Z,14.44
2023-03-21T18:11:42.177Z,14.56
2023-03-21T18:14:17.229Z,14.46
2023-03-21T18:16:47.006Z,14.32
2023-03-21T18:19:16.448Z,14.24
2023-03-21T18:21:46.678Z,14.20
2023-03-21T18:24:15.515Z,14.89
2023-03-21T18:26:46.119Z,14.39
2023-03-21T18:30:15.930Z,14.12
2023-03-21T18:32:07.734Z,13.89
2023-03-21T18:34:38.770Z,13.84
2023-03-21T18:37:12.010Z,13.78
2023-03-21T18:39:42.655Z,13.71
2023-03-21T18:42:17.253Z,13.67
2023-03-21T18:44:47.996Z,13.61
2023-03-21T18:47:16.862Z,13.54
2023-03-21T18:50:12.771Z,13.52
2023-03-21T18:52:35.620Z,13.38
2023-03-21T18:55:05.331Z,13.25
2023-03-21T18:57:37.388Z,13.14
2023-03-21T19:00:13.453Z,13.05
2023-03-21T19:02:46.966Z,12.96
2023-03-21T19:05:17.606Z,12.89
2023-03-21T19:07:48.501Z,12.83
2023-03-21T19:10:20.095Z,12.79
2023-03-21T19:12:49.361Z,12.77
2023-03-21T19:15:19.854Z,12.75
2023-03-21T19:20:38.259Z,12.60
2023-03-21T19:23:10.068Z,12.55
2023-03-21T19:25:39.297Z,12.46
2023-03-21T19:28:08.372Z,12.35
2023-03-21T19:30:37.237Z,12.10
2023-03-21T19:33:07.550Z,12.27
2023-03-21T19:35:37.806Z,12.20
2023-03-21T19:38:07.992Z,12.23
2023-03-21T19:40:36.679Z,12.16
2023-03-21T19:43:29.825Z,12.10
2023-03-21T19:45:54.142Z,12.12
2023-03-21T19:48:23.544Z,12.09
2023-03-21T19:51:24.703Z,12.08
2023-03-21T19:53:42.284Z,12.01
2023-03-21T19:56:21.860Z,11.94
2023-03-21T19:58:52.287Z,11.76
2023-03-21T20:01:20.785Z,11.61
2023-03-21T20:03:49.601Z,11.47
2023-03-21T20:06:17.975Z,11.33
2023-03-21T20:11:37.964Z,11.10
2023-03-21T20:14:06.472Z,11.06
2023-03-21T20:16:36.785Z,11.10
2023-03-21T20:19:06.228Z,11.16
2023-03-21T20:21:45.324Z,11.17
2023-03-21T20:24:18.734Z,11.14
2023-03-21T20:26:47.307Z,11.10
2023-03-21T20:32:04.235Z,10.93
2023-03-21T20:34:33.108Z,10.95
2023-03-21T20:37:03.203Z,11.03
2023-03-21T20:39:33.087Z,10.99
2023-03-21T20:42:01.537Z,10.95
2023-03-21T20:44:57.815Z,10.94
2023-03-21T20:47:18.793Z,10.93
2023-03-21T20:49:47.324Z,10.91
2023-03-21T20:55:09.315Z,10.57
2023-03-21T20:57:38.929Z,10.77
2023-03-21T21:00:15.111Z,10.68
2023-03-21T21:02:45.137Z,10.44
2023-03-21T21:05:27.526Z,10.54
2023-03-21T21:07:57.438Z,10.47
2023-03-21T21:10:27.196Z,10.52
2023-03-21T21:12:55.751Z,10.52
2023-03-21T21:15:24.143Z,10.49
2023-03-21T21:18:06.506Z,10.45
2023-03-21T21:20:36.603Z,10.42
2023-03-21T21:23:06.152Z,10.39
2023-03-21T21:25:36.422Z,10.47
2023-03-21T21:28:09.284Z,10.50
2023-03-21T21:30:41.950Z,10.47
2023-03-21T21:33:11.568Z,10.44
2023-03-21T21:35:47.002Z,10.41
2023-03-21T21:38:17.927Z,10.42
2023-03-21T21:40:48.601Z,10.39
2023-03-21T21:43:19.145Z,10.19
2023-03-21T21:45:49.539Z,10.31
2023-03-21T21:48:18.071Z,10.28
2023-03-21T21:50:48.467Z,10.34
2023-03-21T21:53:19.186Z,10.32
2023-03-21T21:55:49.722Z,10.25
2023-03-21T21:58:19.320Z,10.19
2023-03-21T22:00:48.536Z,10.16
2023-03-21T22:03:22.217Z,10.14
2023-03-21T22:05:52.525Z,10.15
2023-03-21T22:08:23.154Z,10.16
2023-03-21T22:10:54.022Z,10.15
2023-03-21T22:13:22.377Z,10.11
2023-03-21T22:15:51.838Z,10.05
2023-03-21T22:18:20.289Z,10.11
2023-03-21T22:20:49.033Z,10.18
2023-03-21T22:23:19.506Z,10.23
2023-03-21T22:25:52.210Z,10.15
2023-03-21T22:28:25.792Z,10.24
2023-03-21T22:30:54.442Z,10.18
2023-03-21T22:33:22.968Z,10.11
2023-03-21T22:35:51.799Z,10.04
2023-03-21T22:38:24.348Z,10.00
2023-03-21T22:40:56.507Z,10.01
2023-03-21T22:43:26.824Z,9.99
2023-03-21T22:45:55.528Z,9.88
2023-03-21T22:48:24.208Z,9.81
2023-03-21T22:50:52.731Z,9.77
2023-03-21T22:53:21.187Z,9.41
2023-03-21T22:55:50.578Z,9.52
2023-03-21T22:58:19.989Z,9.41
2023-03-21T23:00:50.214Z,9.34
2023-03-21T23:03:19.039Z,9.24
2023-03-21T23:05:47.546Z,9.25
2023-03-21T23:08:16.140Z,9.18
2023-03-21T23:10:46.090Z,9.12
2023-03-21T23:13:14.533Z,9.08
2023-03-21T23:15:43.111Z,9.11
2023-03-21T23:18:14.986Z,9.15
2023-03-21T23:20:43.412Z,9.07
2023-03-21T23:23:11.790Z,8.98
2023-03-21T23:25:42.478Z,8.88
2023-03-21T23:28:11.292Z,8.82
2023-03-21T23:30:39.955Z,8.76
2023-03-21T23:33:08.583Z,8.71
2023-03-21T23:35:39.556Z,8.61
2023-03-21T23:38:08.060Z,8.47
2023-03-21T23:40:39.484Z,8.42
2023-03-21T23:43:08.027Z,8.46
2023-03-21T23:45:36.843Z,8.49
2023-03-21T23:48:07.640Z,8.45
2023-03-21T23:50:36.206Z,8.38
2023-03-21T23:53:06.013Z,8.28
2023-03-21T23:55:37.852Z,8.22
2023-03-21T23:58:09.497Z,8.20
